Time;durP1;ratioP1;P1;durP2;ratioP2;P2;SDS_P1;SDS_P2;PMS_P1;PMS_P2;Temp;Humidity;BMP_temperature;BMP_pressure;BME280_temperature;BME280_humidity;BME280_pressure;Samples;Min_cycle;Max_cycle;Signal;HPM_P1;HPM_P2
2023/07/20 00:01:27;;;;;;;;;;;;;;;;;;5068142;28;5013;-58
2023/07/20 00:03:55;;;;;;;;;;;;;;;;;;5068250;28;4982;-58
2023/07/20 00:06:24;;;;;;;;;;;;;;;;;;5069055;28;5155;-58
2023/07/20 00:08:49;;;;;;;;;;;;;;;;;;5068869;28;4963;-58
2023/07/20 00:11:15;;;;;;;;;;;;;;;;;;5068013;28;1628;-57
2023/07/20 00:13:40;;;;;;;;;;;;;;;;;;5067770;28;5127;-58
2023/07/20 00:16:06;;;;;;;;;;;;;;;;;;5067980;28;5076;-58
2023/07/20 00:18:31;;;;;;;;;;;;;;;;;;5067396;28;5147;-58
2023/07/20 00:20:56;;;;;;;;;;;;;;;;;;5068788;28;5014;-57
2023/07/20 00:23:22;;;;;;;;;;;;;;;;;;5068902;28;1112;-58
2023/07/20 00:25:47;;;;;;;;;;;;;;;;;;5066119;28;4949;-57
2023/07/20 00:28:13;;;;;;;;;;;;;;;;;;5067845;28;5202;-58
2023/07/20 00:30:38;;;;;;;;;;;;;;;;;;5065639;28;4434;-58
2023/07/20 00:33:03;;;;;;;;;;;;;;;;;;5063035;28;5014;-58
2023/07/20 00:35:28;;;;;;;;;;;;;;;;;;5069038;28;1204;-58
2023/07/20 00:37:54;;;;;;;;;;;;;;;;;;5067689;28;5067;-58
2023/07/20 00:40:19;;;;;;;;;;;;;;;;;;5067805;28;4973;-58
2023/07/20 00:42:44;;;;;;;;;;;;;;;;;;5067778;28;4708;-58
2023/07/20 00:45:10;;;;;;;;;;;;;;;;;;5068039;28;5103;-58
2023/07/20 00:47:35;;;;;;;;;;;;;;;;;;5048718;28;1610;-58
2023/07/20 00:50:00;;;;;;;;;;;;;;;;;;5066773;28;5102;-58
2023/07/20 00:52:26;;;;;;;;;;;;;;;;;;5059716;28;5029;-58
2023/07/20 00:54:51;;;;;;;;;;;;;;;;;;5065845;28;5073;-58
2023/07/20 00:57:17;;;;;;;;;;;;;;;;;;5067711;28;4454;-58
2023/07/20 00:59:42;;;;;;;;;;;;;;;;;;5068281;28;1985;-57
2023/07/20 01:02:07;;;;;;;;;;;;;;;;;;5065929;28;4948;-58
2023/07/20 01:04:33;;;;;;;;;;;;;;;;;;5067747;28;5076;-58
2023/07/20 01:07:08;;;;;;;;;;;;;;;;;;5067422;28;5097;-58
2023/07/20 01:09:37;;;;;;;;;;;;;;;;;;5065359;28;4438;-58
2023/07/20 01:12:07;;;;;;;;;;;;;;;;;;5065827;28;4696;-58
2023/07/20 01:14:32;;;;;;;;;;;;;;;;;;5066712;28;1229;-57
2023/07/20 01:16:58;;;;;;;;;;;;;;;;;;5067351;28;5387;-58
2023/07/20 01:19:23;;;;;;;;;;;;;;;;;;5065984;28;4999;-59
2023/07/20 01:22:00;;;;;;;;;;;;;;;;;;5067346;28;5117;-58
2023/07/20 01:24:34;;;;;;;;;;;;;;;;;;5063590;28;5057;-58
2023/07/20 01:27:22;;;;;;;;;;;;;;;;;;5066668;28;4493;-57
2023/07/20 01:30:01;;;;;;;;;;;;;;;;;;5061420;28;5198;-57
2023/07/20 01:32:27;;;;;;;;;;;;;;;;;;5067694;28;4983;-58
2023/07/20 01:34:52;;;;;;;;;;;;;;;;;;5065665;28;5067;-57
2023/07/20 01:37:19;;;;;;;;;;;;;;;;;;5067333;28;4957;-57
2023/07/20 01:39:45;;;;;;;;;;;;;;;;;;5067276;28;5047;-59
2023/07/20 01:42:10;;;;;;;;;;;;;;;;;;5060701;28;5103;-58
2023/07/20 01:44:36;;;;;;;;;;;;;;;;;;5067960;28;1102;-58
2023/07/20 01:47:01;;;;;;;;;;;;;;;;;;5067006;28;4480;-59
2023/07/20 01:49:27;;;;;;;;;;;;;;;;;;5065941;28;4967;-57
2023/07/20 01:51:52;;;;;;;;;;;;;;;;;;5065743;28;4981;-58
2023/07/20 01:54:17;;;;;;;;;;;;;;;;;;5067096;28;5008;-58
2023/07/20 01:56:43;;;;;;;;;;;;;;;;;;5068047;28;1077;-56
2023/07/20 01:59:08;;;;;;;;;;;;;;;;;;5066430;28;6016;-59
2023/07/20 02:01:33;;;;;;;;;;;;;;;;;;5066030;28;4978;-58
2023/07/20 02:03:59;;;;;;;;;;;;;;;;;;5066943;28;4936;-58
2023/07/20 02:06:24;;;;;;;;;;;;;;;;;;5067263;28;4844;-58
2023/07/20 02:08:49;;;;;;;;;;;;;;;;;;5067928;28;4931;-57
2023/07/20 02:11:14;;;;;;;;;;;;;;;;;;5065756;28;1336;-58
2023/07/20 02:13:40;;;;;;;;;;;;;;;;;;5066813;28;4381;-58
2023/07/20 02:16:05;;;;;;;;;;;;;;;;;;5066670;28;5032;-58
2023/07/20 02:18:30;;;;;;;;;;;;;;;;;;5064808;28;5056;-58
2023/07/20 02:20:55;;;;;;;;;;;;;;;;;;5067785;28;5090;-58
2023/07/20 02:23:21;;;;;;;;;;;;;;;;;;5072104;28;1085;-58
2023/07/20 02:25:46;;;;;;;;;;;;;;;;;;5065537;28;4898;-58
2023/07/20 02:28:14;;;;;;;;;;;;;;;;;;5070144;28;5719;-58
2023/07/20 02:30:40;;;;;;;;;;;;;;;;;;5066842;28;4442;-58
2023/07/20 02:33:06;;;;;;;;;;;;;;;;;;5069792;28;4991;-58
2023/07/20 02:35:31;;;;;;;;;;;;;;;;;;5070912;28;1143;-58
2023/07/20 02:37:56;;;;;;;;;;;;;;;;;;5070063;28;4996;-58
2023/07/20 02:40:22;;;;;;;;;;;;;;;;;;5069714;28;5097;-59
2023/07/20 02:42:48;;;;;;;;;;;;;;;;;;5070263;28;5159;-58
2023/07/20 02:45:13;;;;;;;;;;;;;;;;;;5069839;28;4922;-58
2023/07/20 02:47:38;;;;;;;;;;;;;;;;;;5068807;28;1451;-59
2023/07/20 02:50:05;;;;;;;;;;;;;;;;;;5065536;28;4596;-58
2023/07/20 02:52:30;;;;;;;;;;;;;;;;;;5070088;28;5054;-57
2023/07/20 02:54:56;;;;;;;;;;;;;;;;;;5068029;28;5046;-58
2023/07/20 02:57:21;;;;;;;;;;;;;;;;;;5070155;28;5198;-58
2023/07/20 02:59:46;;;;;;;;;;;;;;;;;;5070107;28;1983;-58
2023/07/20 03:02:12;;;;;;;;;;;;;;;;;;5069547;28;4629;-58
2023/07/20 03:04:37;;;;;;;;;;;;;;;;;;5071471;28;4979;-58
2023/07/20 03:07:04;;;;;;;;;;;;;;;;;;5069684;28;5079;-58
2023/07/20 03:09:29;;;;;;;;;;;;;;;;;;5069683;28;5102;-58
2023/07/20 03:11:54;;;;;;;;;;;;;;;;;;5069534;28;5190;-58
2023/07/20 03:14:20;;;;;;;;;;;;;;;;;;5070190;28;1174;-58
2023/07/20 03:16:45;;;;;;;;;;;;;;;;;;5069516;28;5032;-59
2023/07/20 03:19:10;;;;;;;;;;;;;;;;;;5067684;28;5012;-58
2023/07/20 03:21:40;;;;;;;;;;;;;;;;;;5069332;28;5032;-60
2023/07/20 03:24:05;;;;;;;;;;;;;;;;;;5069167;28;4460;-58
2023/07/20 03:26:31;;;;;;;;;;;;;;;;;;5066256;28;1200;-58
2023/07/20 03:28:56;;;;;;;;;;;;;;;;;;5067453;28;5129;-58
2023/07/20 03:31:21;;;;;;;;;;;;;;;;;;5068957;28;5173;-58
2023/07/20 03:33:47;;;;;;;;;;;;;;;;;;5067599;28;5249;-58
2023/07/20 03:36:12;;;;;;;;;;;;;;;;;;5068982;28;5247;-58
2023/07/20 03:38:37;;;;;;;;;;;;;;;;;;5068018;28;1979;-58
2023/07/20 03:41:03;;;;;;;;;;;;;;;;;;5068860;28;5113;-58
2023/07/20 03:43:28;;;;;;;;;;;;;;;;;;5068595;28;5166;-56
2023/07/20 03:45:53;;;;;;;;;;;;;;;;;;5069008;28;4896;-59
2023/07/20 03:48:19;;;;;;;;;;;;;;;;;;5066037;28;4615;-58
2023/07/20 03:50:45;;;;;;;;;;;;;;;;;;5068448;28;2421;-57
2023/07/20 03:53:11;;;;;;;;;;;;;;;;;;5068742;28;4984;-58
2023/07/20 03:55:36;;;;;;;;;;;;;;;;;;5068152;28;4429;-58
2023/07/20 03:58:01;;;;;;;;;;;;;;;;;;5068616;28;5065;-58
2023/07/20 04:00:27;;;;;;;;;;;;;;;;;;5066946;28;5086;-58
2023/07/20 04:02:52;;;;;;;;;;;;;;;;;;5068604;28;5072;-58
2023/07/20 04:05:18;;;;;;;;;;;;;;;;;;5068654;28;1106;-58
2023/07/20 04:07:43;;;;;;;;;;;;;;;;;;5068216;28;5148;-58
2023/07/20 04:10:08;;;;;;;;;;;;;;;;;;5068068;28;4650;-58
2023/07/20 04:12:34;;;;;;;;;;;;;;;;;;5068512;28;5092;-59
2023/07/20 04:14:59;;;;;;;;;;;;;;;;;;5069108;28;5091;-58
2023/07/20 04:17:24;;;;;;;;;;;;;;;;;;5068246;28;1511;-58
2023/07/20 04:19:50;;;;;;;;;;;;;;;;;;5067126;28;4445;-58
2023/07/20 04:22:15;;;;;;;;;;;;;;;;;;5068271;28;4594;-59
2023/07/20 04:24:41;;;;;;;;;;;;;;;;;;5065968;28;5099;-58
2023/07/20 04:27:07;;;;;;;;;;;;;;;;;;5066396;28;5082;-58
2023/07/20 04:29:32;;;;;;;;;;;;;;;;;;5068279;28;1411;-58
2023/07/20 04:31:57;;;;;;;;;;;;;;;;;;5067835;28;5003;-58
2023/07/20 04:34:22;;;;;;;;;;;;;;;;;;5068008;28;4485;-58
2023/07/20 04:36:48;;;;;;;;;;;;;;;;;;5067440;28;4480;-58
2023/07/20 04:39:13;;;;;;;;;;;;;;;;;;5067430;28;5030;-58
2023/07/20 04:41:38;;;;;;;;;;;;;;;;;;5063338;28;3357;-57
2023/07/20 04:44:04;;;;;;;;;;;;;;;;;;5057601;28;4916;-58
2023/07/20 04:46:29;;;;;;;;;;;;;;;;;;5063497;28;5063;-58
2023/07/20 04:48:54;;;;;;;;;;;;;;;;;;5063123;28;4952;-58
2023/07/20 04:51:20;;;;;;;;;;;;;;;;;;5062506;28;4653;-58
2023/07/20 04:53:49;;;;;;;;;;;;;;;;;;5063892;28;3680;-56
2023/07/20 04:56:14;;;;;;;;;;;;;;;;;;5060670;28;4979;-58
2023/07/20 04:58:39;;;;;;;;;;;;;;;;;;5067458;28;5169;-57
2023/07/20 05:01:04;;;;;;;;;;;;;;;;;;5066983;28;4425;-58
2023/07/20 05:03:30;;;;;;;;;;;;;;;;;;5065516;28;5008;-58
2023/07/20 05:05:55;;;;;;;;;;;;;;;;;;5067423;28;5081;-58
2023/07/20 05:08:22;;;;;;;;;;;;;;;;;;5062718;28;1191;-58
2023/07/20 05:10:47;;;;;;;;;;;;;;;;;;5067738;28;4436;-57
2023/07/20 05:13:12;;;;;;;;;;;;;;;;;;5067468;28;4764;-58
2023/07/20 05:15:38;;;;;;;;;;;;;;;;;;5067610;28;5242;-58
2023/07/20 05:18:03;;;;;;;;;;;;;;;;;;5066553;28;5131;-58
2023/07/20 05:20:28;;;;;;;;;;;;;;;;;;5066781;28;1116;-55
2023/07/20 05:22:53;;;;;;;;;;;;;;;;;;5067225;28;4452;-57
2023/07/20 05:25:19;;;;;;;;;;;;;;;;;;5065509;28;4895;-58
2023/07/20 05:27:44;;;;;;;;;;;;;;;;;;5067249;28;5164;-58
2023/07/20 05:30:10;;;;;;;;;;;;;;;;;;5064220;28;5148;-58
2023/07/20 05:32:35;;;;;;;;;;;;;;;;;;5067773;28;5156;-58
2023/07/20 05:35:00;;;;;;;;;;;;;;;;;;5067192;28;4622;-57
2023/07/20 05:37:25;;;;;;;;;;;;;;;;;;5067416;28;5097;-58
2023/07/20 05:39:51;;;;;;;;;;;;;;;;;;5066934;28;5001;-58
2023/07/20 05:42:16;;;;;;;;;;;;;;;;;;5067307;28;5057;-58
2023/07/20 05:44:41;;;;;;;;;;;;;;;;;;5067534;28;2302;-57
2023/07/20 05:47:07;;;;;;;;;;;;;;;;;;5066940;28;4685;-57
2023/07/20 05:49:32;;;;;;;;;;;;;;;;;;5066041;28;4933;-57
2023/07/20 05:51:57;;;;;;;;;;;;;;;;;;5065729;28;5003;-58
2023/07/20 05:54:25;;;;;;;;;;;;;;;;;;5066969;28;5054;-57
2023/07/20 05:56:51;;;;;;;;;;;;;;;;;;5071372;28;4458;-58
2023/07/20 05:59:16;;;;;;;;;;;;;;;;;;5071566;28;1975;-58
2023/07/20 06:01:41;;;;;;;;;;;;;;;;;;5070816;28;5116;-58
2023/07/20 06:04:06;;;;;;;;;;;;;;;;;;5067483;28;5065;-57
2023/07/20 06:06:32;;;;;;;;;;;;;;;;;;5071100;28;4934;-58
2023/07/20 06:08:57;;;;;;;;;;;;;;;;;;5071391;28;5032;-57
2023/07/20 06:11:22;;;;;;;;;;;;;;;;;;5071583;28;1084;-57
2023/07/20 06:13:48;;;;;;;;;;;;;;;;;;5069609;28;4470;-58
2023/07/20 06:16:13;;;;;;;;;;;;;;;;;;5070878;28;4963;-57
2023/07/20 06:18:38;;;;;;;;;;;;;;;;;;5069119;28;5247;-56
2023/07/20 06:21:03;;;;;;;;;;;;;;;;;;5072082;28;5013;-57
2023/07/20 06:23:29;;;;;;;;;;;;;;;;;;5071558;28;1095;-58
2023/07/20 06:25:54;;;;;;;;;;;;;;;;;;5069094;28;4993;-57
2023/07/20 06:28:19;;;;;;;;;;;;;;;;;;5070199;28;5133;-57
2023/07/20 06:30:44;;;;;;;;;;;;;;;;;;5070245;28;5132;-57
2023/07/20 06:33:10;;;;;;;;;;;;;;;;;;5064231;28;5151;-57
2023/07/20 06:35:35;;;;;;;;;;;;;;;;;;5072304;28;1305;-56
2023/07/20 06:38:01;;;;;;;;;;;;;;;;;;5070238;28;5004;-56
2023/07/20 06:40:26;;;;;;;;;;;;;;;;;;5069825;28;4839;-57
2023/07/20 06:42:52;;;;;;;;;;;;;;;;;;5069256;28;5011;-57
2023/07/20 06:45:17;;;;;;;;;;;;;;;;;;5069941;28;4436;-57
2023/07/20 06:47:42;;;;;;;;;;;;;;;;;;5069243;28;1462;-56
2023/07/20 06:50:08;;;;;;;;;;;;;;;;;;5066820;28;4360;-58
2023/07/20 06:52:33;;;;;;;;;;;;;;;;;;5070322;28;4929;-57
2023/07/20 06:54:58;;;;;;;;;;;;;;;;;;5070074;28;5120;-56
2023/07/20 06:57:24;;;;;;;;;;;;;;;;;;5069983;28;4702;-56
2023/07/20 06:59:49;;;;;;;;;;;;;;;;;;5069772;28;5388;-56
2023/07/20 07:02:15;;;;;;;;;;;;;;;;;;5069945;28;2733;-57
2023/07/20 07:04:40;;;;;;;;;;;;;;;;;;5069328;28;4976;-57
2023/07/20 07:07:06;;;;;;;;;;;;;;;;;;5065730;28;4905;-56
2023/07/20 07:09:31;;;;;;;;;;;;;;;;;;5069280;28;5054;-56
2023/07/20 07:11:57;;;;;;;;;;;;;;;;;;5069905;28;5675;-56
2023/07/20 07:14:22;;;;;;;;;;;;;;;;;;5070225;28;1244;-57
2023/07/20 07:16:47;;;;;;;;;;;;;;;;;;5069631;28;5026;-57
2023/07/20 07:19:13;;;;;;;;;;;;;;;;;;5068096;28;4975;-56
2023/07/20 07:21:38;;;;;;;;;;;;;;;;;;5068431;28;5394;-57
2023/07/20 07:24:03;;;;;;;;;;;;;;;;;;5068984;28;5002;-56
2023/07/20 07:26:29;;;;;;;;;;;;;;;;;;5066669;28;1321;-57
2023/07/20 07:28:54;;;;;;;;;;;;;;;;;;5069119;28;5177;-57
2023/07/20 07:31:19;;;;;;;;;;;;;;;;;;5070218;28;5082;-57
2023/07/20 07:33:44;;;;;;;;;;;;;;;;;;5063931;28;5094;-57
2023/07/20 07:36:10;;;;;;;;;;;;;;;;;;5068690;28;4903;-57
2023/07/20 07:38:35;;;;;;;;;;;;;;;;;;5069179;28;2005;-56
2023/07/20 07:41:00;;;;;;;;;;;;;;;;;;5067516;28;4825;-57
2023/07/20 07:43:25;;;;;;;;;;;;;;;;;;5068789;28;5629;-56
2023/07/20 07:45:53;;;;;;;;;;;;;;;;;;5068979;28;5081;-57
2023/07/20 07:48:20;;;;;;;;;;;;;;;;;;5063046;28;4621;-56
2023/07/20 07:50:45;;;;;;;;;;;;;;;;;;5064299;28;1167;-57
2023/07/20 07:53:10;;;;;;;;;;;;;;;;;;5068586;28;4646;-57
2023/07/20 07:55:36;;;;;;;;;;;;;;;;;;5067683;28;5050;-57
2023/07/20 07:58:01;;;;;;;;;;;;;;;;;;5068192;28;5430;-57
2023/07/20 08:00:26;;;;;;;;;;;;;;;;;;5067953;28;4485;-56
2023/07/20 08:02:51;;;;;;;;;;;;;;;;;;5062513;28;5061;-56
2023/07/20 08:05:17;;;;;;;;;;;;;;;;;;5067906;28;1179;-57
2023/07/20 08:07:42;;;;;;;;;;;;;;;;;;5068754;28;5004;-57
2023/07/20 08:10:08;;;;;;;;;;;;;;;;;;5068212;28;5075;-57
2023/07/20 08:12:33;;;;;;;;;;;;;;;;;;5068491;28;5068;-57
2023/07/20 08:14:59;;;;;;;;;;;;;;;;;;5049655;28;4469;-57
2023/07/20 08:17:24;;;;;;;;;;;;;;;;;;5068603;28;1192;-57
2023/07/20 08:19:49;;;;;;;;;;;;;;;;;;5064543;28;5221;-53
2023/07/20 08:22:15;;;;;;;;;;;;;;;;;;5067340;28;4966;-53
2023/07/20 08:24:41;;;;;;;;;;;;;;;;;;5064390;28;4565;-54
2023/07/20 08:27:06;;;;;;;;;;;;;;;;;;5063416;28;5594;-51
2023/07/20 08:29:31;;;;;;;;;;;;;;;;;;5060439;28;3398;-52
2023/07/20 08:31:57;;;;;;;;;;;;;;;;;;5061762;28;5102;-53
2023/07/20 08:34:22;;;;;;;;;;;;;;;;;;5063062;28;5064;-52
2023/07/20 08:36:47;;;;;;;;;;;;;;;;;;5063161;28;5023;-52
2023/07/20 08:39:12;;;;;;;;;;;;;;;;;;5061834;28;5588;-52
2023/07/20 08:41:38;;;;;;;;;;;;;;;;;;5068506;28;1096;-52
2023/07/20 08:44:04;;;;;;;;;;;;;;;;;;5067226;28;4477;-55
2023/07/20 08:46:29;;;;;;;;;;;;;;;;;;5064859;28;5062;-55
2023/07/20 08:48:54;;;;;;;;;;;;;;;;;;5062896;28;4476;-55
2023/07/20 08:51:20;;;;;;;;;;;;;;;;;;5064259;28;5118;-56
2023/07/20 08:53:45;;;;;;;;;;;;;;;;;;5065188;28;1119;-54
2023/07/20 08:56:11;;;;;;;;;;;;;;;;;;5065805;28;4611;-56
2023/07/20 08:58:36;;;;;;;;;;;;;;;;;;5065409;28;5118;-56
2023/07/20 09:01:02;;;;;;;;;;;;;;;;;;5064871;28;5049;-55
2023/07/20 09:03:27;;;;;;;;;;;;;;;;;;5062274;28;5084;-55
2023/07/20 09:05:52;;;;;;;;;;;;;;;;;;5066527;28;5376;-55
2023/07/20 09:08:18;;;;;;;;;;;;;;;;;;5064902;28;3459;-55
2023/07/20 09:10:43;;;;;;;;;;;;;;;;;;5064383;28;4847;-55
2023/07/20 09:13:08;;;;;;;;;;;;;;;;;;5061802;28;4536;-54
2023/07/20 09:15:34;;;;;;;;;;;;;;;;;;5067749;28;4891;-55
2023/07/20 09:18:00;;;;;;;;;;;;;;;;;;5065915;28;5162;-55
2023/07/20 09:20:26;;;;;;;;;;;;;;;;;;5063673;28;3600;-56
2023/07/20 09:22:52;;;;;;;;;;;;;;;;;;5058770;28;4508;-61
2023/07/20 09:25:19;;;;;;;;;;;;;;;;;;5064154;28;4669;-61
2023/07/20 09:27:46;;;;;;;;;;;;;;;;;;5066809;28;5060;-59
2023/07/20 09:30:13;;;;;;;;;;;;;;;;;;5063987;28;5104;-62
2023/07/20 09:32:47;;;;;;;;;;;;;;;;;;5061153;28;4966;-60
2023/07/20 09:35:13;;;;;;;;;;;;;;;;;;5064198;28;4543;-60
2023/07/20 09:37:38;;;;;;;;;;;;;;;;;;5067315;28;4476;-60
2023/07/20 09:40:04;;;;;;;;;;;;;;;;;;5067754;28;5046;-59
2023/07/20 09:42:29;;;;;;;;;;;;;;;;;;5057483;28;4471;-61
2023/07/20 09:44:55;;;;;;;;;;;;;;;;;;5065131;28;4843;-61
2023/07/20 09:47:23;;;;;;;;;;;;;;;;;;5059990;28;3391;-61
2023/07/20 09:49:48;;;;;;;;;;;;;;;;;;5061643;28;5073;-61
2023/07/20 09:52:14;;;;;;;;;;;;;;;;;;5065768;28;4624;-61
2023/07/20 09:54:39;;;;;;;;;;;;;;;;;;5062824;28;5149;-61
2023/07/20 09:57:06;;;;;;;;;;;;;;;;;;5065368;28;4978;-65
2023/07/20 09:59:32;;;;;;;;;;;;;;;;;;5064978;28;3282;-63
2023/07/20 10:01:58;;;;;;;;;;;;;;;;;;5060223;28;5201;-61
2023/07/20 10:04:23;;;;;;;;;;;;;;;;;;5066680;28;4907;-58
2023/07/20 10:06:49;;;;;;;;;;;;;;;;;;5065179;28;5094;-64
2023/07/20 10:09:15;;;;;;;;;;;;;;;;;;5066477;28;4910;-64
2023/07/20 10:11:40;;;;;;;;;;;;;;;;;;5066780;28;1254;-65
2023/07/20 10:14:06;;;;;;;;;;;;;;;;;;5065606;28;4843;-63
2023/07/20 10:16:33;;;;;;;;;;;;;;;;;;5066589;28;4957;-65
2023/07/20 10:19:01;;;;;;;;;;;;;;;;;;5061788;28;5151;-62
2023/07/20 10:21:26;;;;;;;;;;;;;;;;;;5066110;28;5153;-59
2023/07/20 10:23:51;;;;;;;;;;;;;;;;;;5071352;28;5098;-59
2023/07/20 10:26:17;;;;;;;;;;;;;;;;;;5047392;28;2146;-59
2023/07/20 10:28:42;;;;;;;;;;;;;;;;;;5065100;28;5003;-58
2023/07/20 10:31:08;;;;;;;;;;;;;;;;;;5065672;28;5159;-59
2023/07/20 10:33:33;;;;;;;;;;;;;;;;;;5066607;28;5097;-59
2023/07/20 10:36:02;;;;;;;;;;;;;;;;;;5062092;28;4637;-59
2023/07/20 10:38:42;;;;;;;;;;;;;;;;;;5060789;28;3405;-58
2023/07/20 10:41:17;;;;;;;;;;;;;;;;;;5061936;28;4468;-57
2023/07/20 10:43:44;;;;;;;;;;;;;;;;;;5063814;28;4421;-58
2023/07/20 10:46:10;;;;;;;;;;;;;;;;;;5069435;28;5508;-58
2023/07/20 10:48:35;;;;;;;;;;;;;;;;;;5065722;28;5033;-59
2023/07/20 10:51:16;;;;;;;;;;;;;;;;;;5068078;28;4999;-58
2023/07/20 10:53:41;;;;;;;;;;;;;;;;;;5069793;28;1191;-59
2023/07/20 10:56:08;;;;;;;;;;;;;;;;;;5068806;28;4824;-60
2023/07/20 10:58:33;;;;;;;;;;;;;;;;;;5068819;28;5079;-59
2023/07/20 11:01:02;;;;;;;;;;;;;;;;;;5066022;28;4560;-51
2023/07/20 11:03:29;;;;;;;;;;;;;;;;;;5059062;28;5038;-55
2023/07/20 11:05:54;;;;;;;;;;;;;;;;;;5065703;28;5037;-54
2023/07/20 11:08:37;;;;;;;;;;;;;;;;;;5063052;28;3395;-54
2023/07/20 11:11:21;;;;;;;;;;;;;;;;;;5066480;28;4995;-53
2023/07/20 11:14:06;;;;;;;;;;;;;;;;;;5063139;28;5085;-59
2023/07/20 11:16:38;;;;;;;;;;;;;;;;;;5064314;28;4966;-57
2023/07/20 11:19:03;;;;;;;;;;;;;;;;;;5060919;28;5106;-60
2023/07/20 11:21:29;;;;;;;;;;;;;;;;;;5067192;28;5138;-57
2023/07/20 11:23:55;;;;;;;;;;;;;;;;;;5066608;28;4558;-58
2023/07/20 11:26:20;;;;;;;;;;;;;;;;;;5047243;28;3299;-58
2023/07/20 11:28:49;;;;;;;;;;;;;;;;;;5062280;28;4842;-58
2023/07/20 11:31:16;;;;;;;;;;;;;;;;;;5057407;28;5195;-57
2023/07/20 11:33:41;;;;;;;;;;;;;;;;;;5068350;28;5228;-56
2023/07/20 11:36:08;;;;;;;;;;;;;;;;;;5068031;28;5266;-61
2023/07/20 11:38:33;;;;;;;;;;;;;;;;;;5065913;28;1921;-61
2023/07/20 11:40:58;;;;;;;;;;;;;;;;;;5068151;28;5069;-61
2023/07/20 11:43:24;;;;;;;;;;;;;;;;;;5065613;28;5052;-57
2023/07/20 11:45:49;;;;;;;;;;;;;;;;;;5066822;28;4952;-60
2023/07/20 11:48:15;;;;;;;;;;;;;;;;;;5068723;28;5056;-60
2023/07/20 11:50:40;;;;;;;;;;;;;;;;;;5048945;28;1503;-64
2023/07/20 11:53:06;;;;;;;;;;;;;;;;;;5065312;28;4987;-61
2023/07/20 11:55:32;;;;;;;;;;;;;;;;;;5065128;28;4447;-58
2023/07/20 11:58:01;;;;;;;;;;;;;;;;;;5064574;28;4591;-59
2023/07/20 12:00:26;;;;;;;;;;;;;;;;;;5066507;28;4501;-61
2023/07/20 12:02:53;;;;;;;;;;;;;;;;;;5068792;28;5103;-69
2023/07/20 12:05:18;;;;;;;;;;;;;;;;;;5060466;28;1286;-58
2023/07/20 12:07:44;;;;;;;;;;;;;;;;;;5073926;28;5068;-60
2023/07/20 12:10:12;;;;;;;;;;;;;;;;;;5062792;28;5431;-55
2023/07/20 12:12:38;;;;;;;;;;;;;;;;;;5065066;28;5147;-60
2023/07/20 12:15:16;;;;;;;;;;;;;;;;;;5065614;28;4990;-58
2023/07/20 12:17:42;;;;;;;;;;;;;;;;;;5066277;28;2193;-57
2023/07/20 12:20:07;;;;;;;;;;;;;;;;;;5064030;28;4617;-62
2023/07/20 12:22:37;;;;;;;;;;;;;;;;;;5067380;28;5298;-64
2023/07/20 12:25:05;;;;;;;;;;;;;;;;;;5064456;28;4547;-64
2023/07/20 12:27:30;;;;;;;;;;;;;;;;;;5065537;28;5056;-53
2023/07/20 12:29:57;;;;;;;;;;;;;;;;;;5058658;28;5058;-54
2023/07/20 12:32:22;;;;;;;;;;;;;;;;;;5067337;28;4963;-53
2023/07/20 12:34:48;;;;;;;;;;;;;;;;;;5063225;28;5348;-60
2023/07/20 12:37:13;;;;;;;;;;;;;;;;;;5067586;28;5031;-62
2023/07/20 12:39:39;;;;;;;;;;;;;;;;;;5062494;28;4919;-64
2023/07/20 12:42:04;;;;;;;;;;;;;;;;;;5065369;28;5193;-59
2023/07/20 12:44:30;;;;;;;;;;;;;;;;;;5060164;28;3505;-58
2023/07/20 12:46:55;;;;;;;;;;;;;;;;;;5067556;28;5032;-58
2023/07/20 12:49:20;;;;;;;;;;;;;;;;;;5044899;28;5180;-57
2023/07/20 12:51:46;;;;;;;;;;;;;;;;;;5061909;28;5662;-57
2023/07/20 12:54:11;;;;;;;;;;;;;;;;;;5065058;28;4945;-60
2023/07/20 12:56:36;;;;;;;;;;;;;;;;;;5067939;28;1117;-55
2023/07/20 12:59:02;;;;;;;;;;;;;;;;;;5065308;28;5041;-54
2023/07/20 13:01:28;;;;;;;;;;;;;;;;;;5061767;28;4764;-58
2023/07/20 13:03:54;;;;;;;;;;;;;;;;;;5056855;28;5064;-57
2023/07/20 13:06:19;;;;;;;;;;;;;;;;;;5061144;28;5060;-59
2023/07/20 13:08:45;;;;;;;;;;;;;;;;;;5064491;28;3392;-58
2023/07/20 13:11:10;;;;;;;;;;;;;;;;;;5067144;28;4870;-59
2023/07/20 13:13:35;;;;;;;;;;;;;;;;;;5062866;28;4918;-58
2023/07/20 13:16:00;;;;;;;;;;;;;;;;;;5053729;28;4604;-59
2023/07/20 13:18:26;;;;;;;;;;;;;;;;;;5060859;28;4473;-58
2023/07/20 13:20:51;;;;;;;;;;;;;;;;;;5062579;28;4478;-57
2023/07/20 13:23:16;;;;;;;;;;;;;;;;;;5059327;28;1188;-56
2023/07/20 13:25:42;;;;;;;;;;;;;;;;;;5062792;28;4965;-57
2023/07/20 13:28:08;;;;;;;;;;;;;;;;;;5065548;28;4999;-57
2023/07/20 13:30:33;;;;;;;;;;;;;;;;;;5063998;28;5055;-53
2023/07/20 13:32:58;;;;;;;;;;;;;;;;;;5059554;28;5014;-53
2023/07/20 13:35:24;;;;;;;;;;;;;;;;;;5063621;28;1143;-53
2023/07/20 13:37:49;;;;;;;;;;;;;;;;;;5057115;28;5089;-54
2023/07/20 13:40:16;;;;;;;;;;;;;;;;;;5056808;28;4942;-54
2023/07/20 13:42:42;;;;;;;;;;;;;;;;;;5064741;28;5313;-54
2023/07/20 13:45:07;;;;;;;;;;;;;;;;;;5060534;28;5007;-55
2023/07/20 13:47:32;;;;;;;;;;;;;;;;;;5066240;28;3317;-54
2023/07/20 13:49:58;;;;;;;;;;;;;;;;;;5059294;28;5054;-55
2023/07/20 13:52:23;;;;;;;;;;;;;;;;;;5063752;28;5040;-53
2023/07/20 13:54:48;;;;;;;;;;;;;;;;;;5060687;28;5058;-54
2023/07/20 13:57:14;;;;;;;;;;;;;;;;;;5061809;28;5119;-52
2023/07/20 13:59:40;;;;;;;;;;;;;;;;;;5059973;28;3397;-52
2023/07/20 14:02:05;;;;;;;;;;;;;;;;;;5058134;28;5031;-55
2023/07/20 14:04:30;;;;;;;;;;;;;;;;;;5064272;28;4429;-51
2023/07/20 14:06:55;;;;;;;;;;;;;;;;;;5063056;28;5085;-51
2023/07/20 14:09:21;;;;;;;;;;;;;;;;;;5060594;28;4739;-54
2023/07/20 14:11:46;;;;;;;;;;;;;;;;;;5062053;28;3269;-53
2023/07/20 14:14:12;;;;;;;;;;;;;;;;;;5059214;28;4384;-54
2023/07/20 14:16:37;;;;;;;;;;;;;;;;;;5066551;28;4425;-52
2023/07/20 14:19:04;;;;;;;;;;;;;;;;;;5065489;28;4985;-54
2023/07/20 14:21:31;;;;;;;;;;;;;;;;;;5068846;28;4951;-53
2023/07/20 14:23:57;;;;;;;;;;;;;;;;;;5065881;28;4993;-53
2023/07/20 14:26:22;;;;;;;;;;;;;;;;;;5059153;28;3276;-64
2023/07/20 14:28:48;;;;;;;;;;;;;;;;;;5059331;28;5052;-57
2023/07/20 14:31:13;;;;;;;;;;;;;;;;;;5059327;28;5081;-59
2023/07/20 14:33:39;;;;;;;;;;;;;;;;;;5063731;28;5023;-59
2023/07/20 14:36:04;;;;;;;;;;;;;;;;;;5062840;28;4657;-58
2023/07/20 14:38:30;;;;;;;;;;;;;;;;;;5069223;28;1988;-59
2023/07/20 14:40:55;;;;;;;;;;;;;;;;;;5065679;28;4882;-59
2023/07/20 14:43:21;;;;;;;;;;;;;;;;;;5068312;28;4423;-58
2023/07/20 14:45:46;;;;;;;;;;;;;;;;;;5061414;28;4856;-58
2023/07/20 14:48:11;;;;;;;;;;;;;;;;;;5050232;28;5140;-58
2023/07/20 14:50:37;;;;;;;;;;;;;;;;;;5070389;28;1164;-57
2023/07/20 14:53:03;;;;;;;;;;;;;;;;;;5069210;28;5085;-55
2023/07/20 14:55:28;;;;;;;;;;;;;;;;;;5069308;28;5099;-57
2023/07/20 14:57:53;;;;;;;;;;;;;;;;;;5067988;28;5145;-60
2023/07/20 15:00:19;;;;;;;;;;;;;;;;;;5069724;28;5111;-59
2023/07/20 15:02:44;;;;;;;;;;;;;;;;;;5063242;28;1218;-54
2023/07/20 15:05:10;;;;;;;;;;;;;;;;;;5067766;28;5014;-60
2023/07/20 15:07:36;;;;;;;;;;;;;;;;;;5066761;28;5059;-56
2023/07/20 15:10:01;;;;;;;;;;;;;;;;;;5069436;28;4737;-59
2023/07/20 15:12:27;;;;;;;;;;;;;;;;;;5066857;28;5000;-58
2023/07/20 15:15:18;;;;;;;;;;;;;;;;;;5069060;28;5218;-59
2023/07/20 15:17:44;;;;;;;;;;;;;;;;;;5065383;28;1523;-58
2023/07/20 15:20:10;;;;;;;;;;;;;;;;;;5066221;28;4922;-57
2023/07/20 15:22:35;;;;;;;;;;;;;;;;;;5068871;28;4924;-59
2023/07/20 15:25:02;;;;;;;;;;;;;;;;;;5064721;28;5101;-60
2023/07/20 15:27:27;;;;;;;;;;;;;;;;;;5068351;28;5185;-60
2023/07/20 15:29:52;;;;;;;;;;;;;;;;;;5067483;28;5186;-59
2023/07/20 15:32:17;;;;;;;;;;;;;;;;;;5062731;28;4970;-58
2023/07/20 15:34:43;;;;;;;;;;;;;;;;;;5063265;28;5042;-58
2023/07/20 15:37:09;;;;;;;;;;;;;;;;;;5066544;28;5474;-58
2023/07/20 15:39:35;;;;;;;;;;;;;;;;;;5068293;28;5206;-59
2023/07/20 15:42:00;;;;;;;;;;;;;;;;;;5066386;28;5039;-59
2023/07/20 15:44:25;;;;;;;;;;;;;;;;;;5069043;28;1298;-58
2023/07/20 15:46:50;;;;;;;;;;;;;;;;;;5064001;28;4863;-59
2023/07/20 15:49:16;;;;;;;;;;;;;;;;;;5067147;28;5058;-59
2023/07/20 15:51:41;;;;;;;;;;;;;;;;;;5067235;28;4955;-59
2023/07/20 15:54:09;;;;;;;;;;;;;;;;;;5067796;28;5264;-59
2023/07/20 15:56:34;;;;;;;;;;;;;;;;;;5068691;28;1176;-56
2023/07/20 15:58:59;;;;;;;;;;;;;;;;;;5067470;28;4935;-57
2023/07/20 16:01:24;;;;;;;;;;;;;;;;;;5065873;28;4585;-59
2023/07/20 16:03:50;;;;;;;;;;;;;;;;;;5063571;28;5120;-60
2023/07/20 16:06:15;;;;;;;;;;;;;;;;;;5064350;28;4464;-53
2023/07/20 16:08:40;;;;;;;;;;;;;;;;;;5063735;28;3418;-54
2023/07/20 16:11:05;;;;;;;;;;;;;;;;;;5059314;28;5211;-56
2023/07/20 16:13:31;;;;;;;;;;;;;;;;;;5068088;28;5295;-57
2023/07/20 16:15:56;;;;;;;;;;;;;;;;;;5060913;28;4946;-56
2023/07/20 16:18:21;;;;;;;;;;;;;;;;;;5064659;28;5249;-56
2023/07/20 16:20:47;;;;;;;;;;;;;;;;;;5065868;28;3386;-55
2023/07/20 16:23:12;;;;;;;;;;;;;;;;;;5066833;28;4930;-55
2023/07/20 16:25:37;;;;;;;;;;;;;;;;;;5063712;28;5227;-56
2023/07/20 16:28:03;;;;;;;;;;;;;;;;;;5067431;28;4887;-54
2023/07/20 16:30:29;;;;;;;;;;;;;;;;;;5065744;28;4662;-55
2023/07/20 16:32:54;;;;;;;;;;;;;;;;;;5056229;28;5145;-59
2023/07/20 16:35:19;;;;;;;;;;;;;;;;;;5064753;28;3317;-58
2023/07/20 16:37:45;;;;;;;;;;;;;;;;;;5065777;28;5077;-58
2023/07/20 16:40:11;;;;;;;;;;;;;;;;;;5066848;28;4455;-59
2023/07/20 16:42:37;;;;;;;;;;;;;;;;;;5066946;28;4634;-58
2023/07/20 16:45:03;;;;;;;;;;;;;;;;;;5063197;28;5175;-58
2023/07/20 16:47:28;;;;;;;;;;;;;;;;;;5064874;28;1120;-59
2023/07/20 16:49:53;;;;;;;;;;;;;;;;;;5066876;28;5148;-58
2023/07/20 16:52:18;;;;;;;;;;;;;;;;;;5063667;28;4445;-58
2023/07/20 16:54:44;;;;;;;;;;;;;;;;;;5060294;28;5092;-61